createdAt,value
2019-02-27T04:15:53.832Z,101063.22
2019-02-27T04:18:27.519Z,101055.70
2019-02-27T04:20:53.356Z,101063.52
2019-02-27T04:23:23.296Z,101067.84
2019-02-27T04:26:11.693Z,101067.84
2019-02-27T04:28:41.123Z,101069.16
2019-02-27T04:31:30.531Z,101063.02
2019-02-27T04:34:01.302Z,101064.55
2019-02-27T04:39:25.813Z,101055.55
2019-02-27T04:41:55.200Z,101056.09
2019-02-27T04:44:24.765Z,101059.23
2019-02-27T04:46:55.061Z,101048.53
2019-02-27T04:49:25.455Z,101054.87
2019-02-27T04:51:54.939Z,101046.41
2019-02-27T04:54:26.356Z,101053.53
2019-02-27T04:56:57.608Z,101049.70
2019-02-27T04:59:27.446Z,101048.33
2019-02-27T05:01:59.119Z,101047.64
2019-02-27T05:04:28.560Z,101037.66
2019-02-27T05:06:58.288Z,101040.64
2019-02-27T05:09:27.777Z,101036.47
2019-02-27T05:11:57.336Z,101036.28
2019-02-27T05:14:28.565Z,101030.97
2019-02-27T05:19:41.582Z,101030.83
2019-02-27T05:22:26.713Z,101026.55
2019-02-27T05:24:43.548Z,101021.06
2019-02-27T05:30:25.629Z,101011.48
2019-02-27T05:33:06.328Z,101000.66
2019-02-27T05:35:35.798Z,101000.66
2019-02-27T05:38:05.229Z,101001.00
2019-02-27T05:40:35.144Z,101001.30
2019-02-27T05:43:04.576Z,100998.45
2019-02-27T05:45:33.997Z,100985.97
2019-02-27T05:48:03.375Z,100985.97
2019-02-27T05:50:34.354Z,100972.66
2019-02-27T05:53:03.963Z,100972.66
2019-02-27T05:55:33.360Z,100966.97
2019-02-27T05:58:02.810Z,100966.97
2019-02-27T06:00:32.206Z,100960.98
2019-02-27T06:08:56.270Z,100947.02
2019-02-27T06:14:30.353Z,100963.33
2019-02-27T06:17:00.362Z,100952.37
2019-02-27T06:19:30.657Z,100960.68
2019-02-27T06:22:03.487Z,100962.98
2019-02-27T06:24:32.885Z,100962.98
2019-02-27T06:27:06.044Z,100965.98
2019-02-27T06:29:33.959Z,100965.84
2019-02-27T06:32:03.435Z,100965.87
2019-02-27T06:34:51.749Z,100965.87
2019-02-27T06:37:21.222Z,100957.28
2019-02-27T06:39:50.680Z,100962.75
2019-02-27T06:42:20.239Z,100955.33
2019-02-27T06:44:49.733Z,100957.98
2019-02-27T06:47:35.561Z,100969.31
2019-02-27T06:52:25.671Z,100959.94
2019-02-27T06:54:55.206Z,100952.16
2019-02-27T06:57:24.586Z,100956.19
2019-02-27T07:00:14.167Z,100958.34
2019-02-27T07:02:43.634Z,100952.09
2019-02-27T07:08:08.990Z,100936.06
2019-02-27T07:10:38.394Z,100938.06
2019-02-27T07:13:07.801Z,100931.61
2019-02-27T07:15:37.258Z,100928.13
2019-02-27T07:18:06.794Z,100919.52
2019-02-27T07:20:36.226Z,100924.83
2019-02-27T07:23:05.883Z,100927.36
2019-02-27T07:25:54.132Z,100924.73
2019-02-27T07:34:06.265Z,100920.63
2019-02-27T07:37:00.122Z,100921.15
2019-02-27T07:39:40.913Z,100922.17
2019-02-27T07:45:10.725Z,100910.58
2019-02-27T07:47:40.966Z,100916.74
2019-02-27T07:50:13.345Z,100919.29
2019-02-27T07:55:22.689Z,100929.30
2019-02-27T08:00:49.867Z,100915.70
2019-02-27T08:03:32.214Z,100915.88
2019-02-27T08:06:02.396Z,100903.92
2019-02-27T08:08:32.517Z,100900.45
2019-02-27T08:11:01.942Z,100904.27
2019-02-27T08:13:31.409Z,100901.30
2019-02-27T08:16:00.827Z,100903.78
2019-02-27T08:18:33.618Z,100900.47
2019-02-27T08:21:01.477Z,100894.63
2019-02-27T08:23:32.686Z,100888.33
2019-02-27T08:26:04.772Z,100891.99
2019-02-27T08:28:33.353Z,100890.50
2019-02-27T08:31:05.769Z,100891.64
2019-02-27T08:33:35.244Z,100895.16
2019-02-27T08:36:04.674Z,100897.13
2019-02-27T08:38:34.181Z,100895.97
2019-02-27T08:41:03.565Z,100883.33
2019-02-27T08:43:47.278Z,100886.47
2019-02-27T08:46:04.268Z,100889.59
2019-02-27T08:48:49.898Z,100887.27
2019-02-27T08:51:16.943Z,100883.11
2019-02-27T08:59:12.066Z,100872.43
2019-02-27T09:01:56.362Z,100876.25
2019-02-27T09:04:29.421Z,100868.55
2019-02-27T09:07:02.745Z,100857.89
2019-02-27T09:09:31.702Z,100851.02
2019-02-27T09:12:03.080Z,100856.00
2019-02-27T09:14:32.229Z,100844.46
2019-02-27T09:17:01.715Z,100845.73
2019-02-27T09:19:31.108Z,100850.05
2019-02-27T09:22:02.398Z,100842.16
2019-02-27T09:24:52.418Z,100840.16
2019-02-27T09:27:22.056Z,100838.31
2019-02-27T09:29:52.366Z,100828.73
2019-02-27T09:38:00.578Z,100825.62
2019-02-27T09:40:30.080Z,100819.56
2019-02-27T09:43:21.121Z,100817.34
2019-02-27T09:46:04.649Z,100807.93
2019-02-27T09:51:16.386Z,100804.28
2019-02-27T09:53:45.850Z,100806.53
2019-02-27T09:56:15.431Z,100810.48
2019-02-27T10:01:35.219Z,100806.87
2019-02-27T10:04:04.486Z,100798.98
2019-02-27T10:06:33.906Z,100789.67
2019-02-27T10:09:17.665Z,100792.89
2019-02-27T10:11:34.546Z,100786.50
2019-02-27T10:14:03.954Z,100788.66
2019-02-27T10:16:34.753Z,100778.48
2019-02-27T10:19:04.704Z,100773.90
2019-02-27T10:21:34.093Z,100772.84
2019-02-27T10:26:38.479Z,100755.36
2019-02-27T10:29:07.999Z,100751.30
2019-02-27T10:31:37.722Z,100753.53
2019-02-27T10:34:07.154Z,100756.34
2019-02-27T10:36:39.206Z,100760.30
2019-02-27T10:39:08.042Z,100754.59
2019-02-27T10:41:37.494Z,100754.00
2019-02-27T10:44:06.926Z,100743.77
2019-02-27T10:46:36.621Z,100746.84
2019-02-27T10:49:25.136Z,100750.91
2019-02-27T10:51:54.594Z,100742.03
2019-02-27T10:54:26.806Z,100736.41
2019-02-27T10:56:57.161Z,100724.27
2019-02-27T10:59:27.732Z,100723.98
2019-02-27T11:01:57.302Z,100716.98
2019-02-27T11:04:28.832Z,100719.14
2019-02-27T11:07:00.996Z,100714.56
2019-02-27T11:09:32.762Z,100709.47
2019-02-27T11:12:02.258Z,100709.60
2019-02-27T11:14:32.691Z,100705.37
2019-02-27T11:19:52.365Z,100693.27
2019-02-27T11:22:21.868Z,100686.42
2019-02-27T11:24:53.016Z,100681.83
2019-02-27T11:27:22.494Z,100679.47
2019-02-27T11:29:52.023Z,100667.94
2019-02-27T11:32:40.489Z,100672.59
2019-02-27T11:35:30.228Z,100667.58
2019-02-27T11:40:43.015Z,100660.11
2019-02-27T11:43:12.615Z,100645.27
2019-02-27T11:45:42.057Z,100641.57
2019-02-27T11:48:23.493Z,100637.36
2019-02-27T11:53:46.960Z,100621.75
2019-02-27T11:56:16.352Z,100612.63
2019-02-27T11:58:45.763Z,100608.42
2019-02-27T12:01:15.425Z,100606.70
2019-02-27T12:03:45.931Z,100598.38
2019-02-27T12:06:18.661Z,100593.11
2019-02-27T12:08:48.084Z,100594.56
2019-02-27T12:11:17.463Z,100583.73
2019-02-27T12:13:46.904Z,100577.23
2019-02-27T12:16:18.313Z,100577.86
2019-02-27T12:18:47.562Z,100575.82
2019-02-27T12:21:17.215Z,100565.14
2019-02-27T12:23:46.630Z,100564.62
2019-02-27T12:26:16.047Z,100563.80
2019-02-27T12:28:45.455Z,100570.89
2019-02-27T12:31:16.672Z,100566.48
2019-02-27T12:33:46.120Z,100563.83
2019-02-27T12:36:16.111Z,100566.62
2019-02-27T12:41:23.677Z,100550.53
2019-02-27T12:43:53.413Z,100542.72
2019-02-27T12:46:23.001Z,100549.53
2019-02-27T12:49:03.921Z,100540.13
2019-02-27T12:51:35.272Z,100538.64
2019-02-27T12:54:05.732Z,100524.61
2019-02-27T12:56:35.759Z,100525.83
2019-02-27T12:59:05.242Z,100522.95
2019-02-27T13:01:34.725Z,100516.11
2019-02-27T13:04:04.241Z,100508.16
2019-02-27T13:06:36.631Z,100497.02
2019-02-27T13:09:26.646Z,100494.75
2019-02-27T13:14:39.688Z,100475.33
2019-02-27T13:20:03.158Z,100470.33
2019-02-27T13:22:34.380Z,100468.15
2019-02-27T13:25:03.964Z,100457.73
2019-02-27T13:27:33.444Z,100453.60
2019-02-27T13:30:08.875Z,100447.00
2019-02-27T13:32:34.472Z,100448.28
2019-02-27T13:35:03.879Z,100443.38
2019-02-27T13:37:33.278Z,100444.50
2019-02-27T13:42:37.503Z,100436.16
2019-02-27T13:47:52.848Z,100430.17
2019-02-27T13:50:29.788Z,100418.92
2019-02-27T13:55:34.357Z,100400.03
2019-02-27T14:00:44.581Z,100402.14
2019-02-27T14:03:27.316Z,100384.09
2019-02-27T14:06:09.411Z,100377.59
2019-02-27T14:08:39.129Z,100372.55
2019-02-27T14:11:08.556Z,100382.20
2019-02-27T14:13:38.013Z,100381.62
2019-02-27T14:16:07.422Z,100369.88
2019-02-27T14:18:37.759Z,100376.17
2019-02-27T14:21:08.029Z,100368.33
2019-02-27T14:23:37.442Z,100356.71
2019-02-27T14:26:09.066Z,100344.55
2019-02-27T14:28:38.262Z,100335.58
2019-02-27T14:34:00.993Z,100317.84
2019-02-27T14:36:30.479Z,100318.55
2019-02-27T14:38:59.856Z,100314.53
2019-02-27T14:41:32.919Z,100308.86
2019-02-27T14:44:21.311Z,100300.09
2019-02-27T14:46:51.312Z,100290.61
2019-02-27T14:49:39.862Z,100274.33
2019-02-27T14:52:13.999Z,100271.77
2019-02-27T14:54:40.510Z,100270.87
2019-02-27T14:57:22.110Z,100268.00
2019-02-27T15:02:47.711Z,100259.74
2019-02-27T15:05:17.099Z,100251.80
2019-02-27T15:07:46.719Z,100244.95
2019-02-27T15:10:16.504Z,100237.52
2019-02-27T15:12:45.956Z,100240.39
2019-02-27T15:17:54.645Z,100222.76
2019-02-27T15:20:24.794Z,100223.80
2019-02-27T15:22:54.223Z,100218.64
2019-02-27T15:30:54.564Z,100212.36
2019-02-27T15:33:42.951Z,100203.70
2019-02-27T15:36:14.085Z,100202.63
2019-02-27T15:38:46.158Z,100209.56
2019-02-27T15:41:14.611Z,100211.13
2019-02-27T15:43:44.001Z,100202.10
2019-02-27T15:46:13.466Z,100192.63
2019-02-27T15:51:18.642Z,100181.34
2019-02-27T15:56:41.470Z,100178.88
2019-02-27T15:59:10.168Z,100171.30
2019-02-27T16:01:39.589Z,100167.40
2019-02-27T16:04:28.068Z,100169.36
2019-02-27T16:06:57.515Z,100153.13
2019-02-27T16:09:46.217Z,100142.73
2019-02-27T16:12:19.905Z,100143.59
2019-02-27T16:17:31.357Z,100131.28
2019-02-27T16:20:01.086Z,100125.11
2019-02-27T16:22:31.496Z,100112.69
2019-02-27T16:25:01.838Z,100118.96
2019-02-27T16:27:32.151Z,100119.38
2019-02-27T16:30:02.480Z,100117.94
2019-02-27T16:32:31.867Z,100120.51
2019-02-27T16:35:01.268Z,100117.14
2019-02-27T16:37:31.520Z,100105.10
2019-02-27T16:40:23.801Z,100109.55
2019-02-27T16:43:14.478Z,100111.50
2019-02-27T16:45:44.008Z,100097.72
2019-02-27T16:48:13.464Z,100096.48
2019-02-27T16:50:42.963Z,100087.77
2019-02-27T16:53:18.699Z,100080.67
2019-02-27T16:55:48.046Z,100074.08
2019-02-27T17:00:55.400Z,100063.10
2019-02-27T17:03:23.395Z,100054.84
2019-02-27T17:05:52.958Z,100039.23
2019-02-27T17:08:22.587Z,100040.47
2019-02-27T17:10:53.868Z,100031.72
2019-02-27T17:16:11.517Z,100014.27
2019-02-27T17:18:40.988Z,100003.16
2019-02-27T17:21:10.399Z,99994.11
2019-02-27T17:23:43.741Z,99988.28
2019-02-27T17:26:11.215Z,99978.09
2019-02-27T17:31:24.646Z,99976.69
2019-02-27T17:33:54.506Z,99980.48
2019-02-27T17:36:23.903Z,99977.28
2019-02-27T17:38:53.560Z,99984.59
2019-02-27T17:41:23.093Z,99971.53
2019-02-27T17:43:54.669Z,99968.16
2019-02-27T17:46:24.074Z,99955.41
2019-02-27T17:48:53.475Z,99951.19
2019-02-27T17:51:22.936Z,99949.15
2019-02-27T17:54:31.600Z,99949.75
2019-02-27T17:57:02.021Z,99951.68
2019-02-27T17:59:31.426Z,99945.02
2019-02-27T18:02:00.982Z,99941.92
2019-02-27T18:04:30.399Z,99940.16
2019-02-27T18:07:00.716Z,99938.44
2019-02-27T18:09:32.940Z,99938.33
2019-02-27T18:12:02.357Z,99932.25
2019-02-27T18:14:31.733Z,99931.82
2019-02-27T18:17:03.472Z,99923.63
2019-02-27T18:19:51.769Z,99919.20
2019-02-27T18:25:18.076Z,99914.38
2019-02-27T18:27:48.506Z,99914.45
2019-02-27T18:30:18.870Z,99902.37
2019-02-27T18:32:51.314Z,99895.28
2019-02-27T18:35:32.605Z,99890.23
2019-02-27T18:38:02.442Z,99877.01
2019-02-27T18:40:31.887Z,99866.00
2019-02-27T18:43:07.836Z,99857.58
2019-02-27T18:45:37.263Z,99849.89
2019-02-27T18:48:07.307Z,99849.77
2019-02-27T18:50:38.221Z,99855.27
2019-02-27T18:53:13.383Z,99858.64
2019-02-27T18:55:41.835Z,99861.42
2019-02-27T18:58:12.736Z,99860.80
2019-02-27T19:01:09.975Z,99859.34
2019-02-27T19:06:27.844Z,99845.28
2019-02-27T19:08:59.498Z,99841.08
2019-02-27T19:14:10.191Z,99834.57
2019-02-27T19:16:58.693Z,99831.79
2019-02-27T19:19:29.250Z,99826.57
2019-02-27T19:22:37.967Z,99828.09
2019-02-27T19:25:27.819Z,99817.33
2019-02-27T19:27:57.469Z,99809.73
2019-02-27T19:30:27.606Z,99795.50
2019-02-27T19:33:01.651Z,99794.56
2019-02-27T19:35:31.872Z,99793.42
2019-02-27T19:38:01.426Z,99789.31
2019-02-27T19:40:31.390Z,99790.84
2019-02-27T19:43:02.422Z,99796.98
2019-02-27T19:45:32.178Z,99786.34
2019-02-27T19:48:01.778Z,99780.19
2019-02-27T19:50:35.395Z,99778.03
2019-02-27T19:53:25.595Z,99766.44
2019-02-27T19:55:55.393Z,99765.02
2019-02-27T19:58:25.060Z,99762.13
2019-02-27T20:00:54.708Z,99760.16
2019-02-27T20:03:25.774Z,99761.88
2019-02-27T20:05:56.161Z,99767.44
2019-02-27T20:08:27.075Z,99765.48
2019-02-27T20:13:50.685Z,99757.37
2019-02-27T20:16:21.543Z,99755.22
2019-02-27T20:18:55.280Z,99745.27
2019-02-27T20:21:25.021Z,99740.14
2019-02-27T20:23:54.386Z,99725.90
2019-02-27T20:26:24.709Z,99725.50
2019-02-27T20:31:35.910Z,99728.81
2019-02-27T20:34:16.669Z,99725.24
2019-02-27T20:36:46.070Z,99720.81
2019-02-27T20:39:15.524Z,99714.74
2019-02-27T20:41:44.884Z,99710.63
2019-02-27T20:44:14.453Z,99713.99
2019-02-27T20:46:58.029Z,99705.92
2019-02-27T20:49:15.977Z,99704.47
2019-02-27T20:51:45.397Z,99696.49
2019-02-27T20:54:14.772Z,99697.82
2019-02-27T20:59:19.119Z,99698.20
2019-02-27T21:02:00.115Z,99688.27
2019-02-27T21:07:26.077Z,99661.36
2019-02-27T21:09:54.488Z,99653.50
2019-02-27T21:12:27.372Z,99643.17
2019-02-27T21:14:57.872Z,99642.86
2019-02-27T21:20:03.501Z,99626.38
2019-02-27T21:22:32.942Z,99629.23
2019-02-27T21:25:02.758Z,99628.80
2019-02-27T21:27:33.013Z,99617.54
2019-02-27T21:30:03.644Z,99614.25
2019-02-27T21:32:33.211Z,99606.97
2019-02-27T21:35:04.900Z,99608.09
2019-02-27T21:37:34.317Z,99613.30
2019-02-27T21:40:03.762Z,99610.08
2019-02-27T21:42:33.214Z,99608.34
2019-02-27T21:45:04.598Z,99610.13
2019-02-27T21:47:34.713Z,99619.22
2019-02-27T21:50:07.118Z,99621.25
2019-02-27T21:55:30.385Z,99602.72
2019-02-27T21:58:00.033Z,99600.25
2019-02-27T22:00:29.565Z,99596.77
2019-02-27T22:03:10.621Z,99592.98
2019-02-27T22:08:27.510Z,99589.30
2019-02-27T22:10:57.203Z,99586.65
2019-02-27T22:14:02.513Z,99583.48
2019-02-27T22:16:41.092Z,99577.98
2019-02-27T22:19:13.387Z,99565.70
2019-02-27T22:21:42.758Z,99562.66
2019-02-27T22:24:41.073Z,99572.39
2019-02-27T22:27:12.737Z,99578.12
2019-02-27T22:29:41.662Z,99567.22
2019-02-27T22:32:12.062Z,99562.65
2019-02-27T22:35:05.440Z,99570.01
2019-02-27T22:37:35.061Z,99569.63
2019-02-27T22:40:07.355Z,99561.95
2019-02-27T22:42:36.076Z,99555.62
2019-02-27T22:45:06.705Z,99556.45
2019-02-27T22:47:36.102Z,99553.47
2019-02-27T22:50:07.013Z,99549.61
2019-02-27T22:52:36.569Z,99555.43
2019-02-27T22:55:12.530Z,99548.16
2019-02-27T22:57:42.010Z,99554.30
2019-02-27T23:03:25.074Z,99556.95
2019-02-27T23:08:35.460Z,99559.80
2019-02-27T23:11:04.837Z,99555.51
2019-02-27T23:13:34.258Z,99547.22
2019-02-27T23:16:43.160Z,99547.73
2019-02-27T23:22:06.783Z,99541.50
2019-02-27T23:24:36.297Z,99544.05
2019-02-27T23:27:05.661Z,99547.28
2019-02-27T23:29:39.661Z,99535.70
2019-02-27T23:32:18.023Z,99533.16
2019-02-27T23:34:47.476Z,99525.06
2019-02-27T23:37:16.878Z,99524.83
2019-02-27T23:39:46.388Z,99524.62
2019-02-27T23:42:15.845Z,99520.52
2019-02-27T23:44:45.219Z,99515.91
2019-02-27T23:47:14.593Z,99513.44
2019-02-27T23:49:44.304Z,99509.64
2019-02-27T23:52:13.790Z,99504.41
2019-02-27T23:54:43.154Z,99501.53
2019-02-27T23:57:12.570Z,99501.73
2019-02-27T23:59:41.985Z,99506.92
